Time;durP1;ratioP1;P1;durP2;ratioP2;P2;SDS_P1;SDS_P2;PMS_P1;PMS_P2;Temp;Humidity;BMP_temperature;BMP_pressure;BME280_temperature;BME280_humidity;BME280_pressure;Samples;Min_cycle;Max_cycle;Signal;HPM_P1;HPM_P2
2023/03/10 00:02:00;;;;;;;32.72;10.43;;;;;;;-0.93;96.35;99563.44;10413583;28;20107;-83
2023/03/10 00:07:42;;;;;;;27.27;10.82;;;;;;;-0.24;95.34;99707.84;10393930;28;20057;-83
2023/03/10 00:13:14;;;;;;;;;;;;;;;;;;;;;
2023/03/10 00:18:35;;;;;;;;;;;;;;;;;;;;;
2023/03/10 00:23:36;;;;;;;34.75;11.55;;;;;;;-0.48;94.73;99689.63;10409669;28;20049;-82
2023/03/10 00:28:37;;;;;;;364.85;17.17;;;;;;;-0.12;95.06;99760.91;10415875;28;20045;-82
2023/03/10 00:33:38;;;;;;;151.65;17.23;;;;;;;0.30;95.58;99823.09;10397291;28;20544;-82
2023/03/10 00:38:40;;;;;;;55.85;10.75;;;;;;;-0.41;95.35;99707.44;10397577;28;20551;-83
2023/03/10 00:43:43;;;;;;;142.18;16.23;;;;;;;-0.25;95.27;99729.66;10397932;28;20521;-84
2023/03/10 00:48:57;;;;;;;36.63;14.52;;;;;;;-1.53;96.43;99530.50;10414961;28;20049;-84
2023/03/10 00:53:59;;;;;;;31.00;13.85;;;;;;;-0.64;95.74;99670.81;10397154;28;20141;-84
2023/03/10 00:59:03;;;;;;;28.83;11.95;;;;;;;-0.52;95.42;99703.81;10414620;28;20049;-84
2023/03/10 01:04:06;;;;;;;22.20;11.25;;;;;;;0.35;95.64;99847.94;10396285;28;20053;-82
2023/03/10 01:09:07;;;;;;;24.87;10.50;;;;;;;-0.85;96.27;99641.94;10396890;28;20502;-84
2023/03/10 01:14:13;;;;;;;18.60;10.52;;;;;;;-0.48;95.79;99683.53;10396517;28;20144;-84
2023/03/10 01:19:14;;;;;;;19.95;11.13;;;;;;;-1.75;95.34;99489.56;10395798;28;20054;-83
2023/03/10 01:24:15;;;;;;;15.48;9.93;;;;;;;-1.87;96.11;99512.94;10412988;28;20567;-83
2023/03/10 01:29:16;;;;;;;14.63;7.97;;;;;;;0.15;95.87;99882.53;10413362;28;20053;-83
2023/03/10 01:34:18;;;;;;;16.33;9.77;;;;;;;-1.12;96.49;99704.72;10396386;28;20140;-83
2023/03/10 01:39:18;;;;;;;22.60;9.23;;;;;;;-0.65;96.24;99783.09;10394995;28;20136;-83
2023/03/10 01:44:20;;;;;;;41.30;10.55;;;;;;;0.45;96.41;99948.22;10440005;28;20065;-83
2023/03/10 01:49:50;;;;;;;101.25;14.70;;;;;;;0.52;95.61;99934.69;10409360;28;20087;-83
2023/03/10 01:55:18;;;;;;;173.60;17.63;;;;;;;-0.19;96.55;99811.91;10393964;28;20050;-83
2023/03/10 02:00:24;;;;;;;123.85;15.02;;;;;;;-0.51;96.84;99765.50;10406180;28;20528;-83
2023/03/10 02:05:27;;;;;;;191.60;19.42;;;;;;;0.04;96.97;99872.06;10394664;28;20061;-83
2023/03/10 02:10:28;;;;;;;242.93;21.02;;;;;;;0.56;98.54;99938.75;10425745;28;20041;-83
2023/03/10 02:15:31;;;;;;;159.73;21.10;;;;;;;-0.06;98.35;99846.63;10433957;28;20055;-82
2023/03/10 02:20:41;;;;;;;323.40;19.42;;;;;;;-1.19;99.19;99633.97;10446917;28;20456;-81
2023/03/10 02:25:54;;;;;;;89.18;15.73;;;;;;;0.57;99.67;99930.81;10411378;28;20051;-81
2023/03/10 02:30:56;;;;;;;55.40;11.20;;;;;;;0.28;99.16;99875.47;10412471;28;20061;-82
2023/03/10 02:36:11;;;;;;;43.63;12.52;;;;;;;0.03;99.02;99858.19;10413238;28;20041;-79
2023/03/10 02:41:31;;;;;;;26.63;12.05;;;;;;;-0.84;99.98;99711.38;10420273;28;20065;-79
2023/03/10 02:46:31;;;;;;;26.23;11.00;;;;;;;-0.22;98.72;99822.56;10417998;28;20065;-77
2023/03/10 02:51:37;;;;;;;99.78;12.18;;;;;;;-0.11;98.13;99824.41;10422442;28;20604;-81
2023/03/10 02:56:38;;;;;;;86.88;14.30;;;;;;;0.49;97.64;99929.72;10391187;28;20053;-80
2023/03/10 03:01:39;;;;;;;84.95;12.52;;;;;;;0.52;98.61;99924.25;10397142;28;20041;-78
2023/03/10 03:06:40;;;;;;;97.70;13.23;;;;;;;0.47;98.25;99902.84;10418563;28;20505;-78
2023/03/10 03:11:40;;;;;;;88.03;11.02;;;;;;;0.61;98.03;99921.78;10417713;28;20045;-78
2023/03/10 03:16:41;;;;;;;99.90;12.82;;;;;;;0.48;98.27;99894.03;10449754;28;20057;-78
2023/03/10 03:21:48;;;;;;;36.17;10.45;;;;;;;0.03;99.04;99800.72;10419430;28;20390;-80
2023/03/10 03:26:49;;;;;;;66.47;10.52;;;;;;;0.69;98.13;99916.00;10418917;28;20422;-76
2023/03/10 03:31:50;;;;;;;136.68;15.43;;;;;;;0.66;98.18;99909.19;10418568;28;20057;-75
2023/03/10 03:36:51;;;;;;;81.15;12.35;;;;;;;0.61;97.94;99889.59;10418444;28;20050;-75
2023/03/10 03:41:56;;;;;;;210.15;19.10;;;;;;;0.13;98.08;99809.53;10418121;28;20506;-76
2023/03/10 03:46:56;;;;;;;276.20;21.10;;;;;;;0.71;99.55;99898.38;10418062;28;20456;-77
2023/03/10 03:51:57;;;;;;;150.20;14.48;;;;;;;0.62;100.00;99886.84;10416932;28;20136;-80
2023/03/10 03:56:58;;;;;;;114.63;13.50;;;;;;;0.90;99.95;99924.81;10417414;28;20060;-78
2023/03/10 04:01:59;;;;;;;135.73;15.23;;;;;;;0.80;100.00;99894.25;10416834;28;20102;-74
2023/03/10 04:07:00;;;;;;;240.77;16.95;;;;;;;1.12;100.00;99926.63;10408981;28;20049;-74
2023/03/10 04:12:01;;;;;;;62.03;12.63;;;;;;;-0.08;100.00;99712.75;10398753;28;20050;-77
2023/03/10 04:17:04;;;;;;;124.13;14.95;;;;;;;1.30;100.00;99932.22;10425871;28;20164;-73
2023/03/10 04:22:05;;;;;;;121.88;15.73;;;;;;;0.85;99.68;99824.97;10415988;28;20053;-77
2023/03/10 04:27:08;;;;;;;75.22;12.43;;;;;;;1.55;98.73;99901.50;10415520;28;20464;-74
2023/03/10 04:32:08;;;;;;;115.18;15.18;;;;;;;1.71;98.16;99916.84;10416290;28;20050;-81
2023/03/10 04:37:09;;;;;;;114.65;15.15;;;;;;;0.95;98.06;99778.00;10416171;28;20517;-87
2023/03/10 04:42:10;;;;;;;119.55;14.40;;;;;;;1.94;97.92;99886.19;10415284;28;20053;-80
2023/03/10 04:47:11;;;;;;;163.65;15.80;;;;;;;2.26;97.44;99897.50;10427670;28;20128;-78
2023/03/10 04:52:13;;;;;;;140.85;15.07;;;;;;;1.68;97.28;99762.63;10416488;28;20064;-81
2023/03/10 04:57:15;;;;;;;85.43;12.45;;;;;;;3.13;97.10;99941.84;10411141;28;20037;-82
2023/03/10 05:02:16;;;;;;;72.68;12.88;;;;;;;3.40;96.61;99927.31;10410060;28;20056;-82
2023/03/10 05:07:17;;;;;;;23.58;11.70;;;;;;;3.16;96.45;99875.97;10392969;28;20045;-81
2023/03/10 05:12:17;;;;;;;32.60;14.10;;;;;;;2.53;96.78;99769.50;10414145;28;20049;-82
2023/03/10 05:17:18;;;;;;;23.63;13.63;;;;;;;2.71;97.17;99774.00;10413675;28;20400;-80
2023/03/10 05:22:19;;;;;;;20.55;12.90;;;;;;;3.46;97.16;99878.69;10414131;28;20148;-81
2023/03/10 05:27:20;;;;;;;24.55;14.02;;;;;;;4.49;96.68;99962.44;10414925;28;20401;-81
2023/03/10 05:32:21;;;;;;;22.85;15.70;;;;;;;3.52;95.94;99771.31;10413186;28;20434;-80
2023/03/10 05:37:22;;;;;;;24.48;15.63;;;;;;;4.99;95.12;99914.84;10413969;28;20046;-80
2023/03/10 05:42:23;;;;;;;20.90;15.40;;;;;;;4.28;94.50;99752.19;10414235;28;20466;-79
2023/03/10 05:47:24;;;;;;;21.80;16.30;;;;;;;5.58;94.30;99932.09;10413221;28;20136;-79
2023/03/10 05:52:25;;;;;;;23.80;15.80;;;;;;;4.72;93.23;99737.50;10413140;28;20057;-83
2023/03/10 05:57:26;;;;;;;23.38;16.58;;;;;;;4.49;93.02;99705.50;10413229;28;20046;-81
2023/03/10 06:02:27;;;;;;;22.38;15.27;;;;;;;4.74;92.59;99667.16;10413451;28;20501;-79
2023/03/10 06:07:27;;;;;;;20.85;14.23;;;;;;;6.14;92.05;99817.72;10412270;28;20050;-80
2023/03/10 06:12:31;;;;;;;21.00;14.63;;;;;;;5.87;90.83;99700.00;10394435;28;20427;-80
2023/03/10 06:17:32;;;;;;;23.60;15.63;;;;;;;7.85;89.97;99927.97;10394509;28;20072;-79
2023/03/10 06:22:32;;;;;;;21.65;16.02;;;;;;;8.76;88.63;99950.94;10411379;28;20065;-78
2023/03/10 06:27:33;;;;;;;27.00;17.90;;;;;;;8.53;87.48;99855.47;10413052;28;20057;-79
2023/03/10 12:46:11;;;;;;;6.22;3.00;;;;;;;20.16;38.16;99732.63;10482570;28;20432;-78
2023/03/10 12:51:19;;;;;;;6.57;2.53;;;;;;;20.02;37.65;99740.22;10482257;28;20049;-78
2023/03/10 12:56:40;;;;;;;6.13;2.00;;;;;;;19.48;38.22;99682.41;10478658;28;20119;-77
2023/03/10 13:01:46;;;;;;;5.40;2.92;;;;;;;19.68;38.94;99714.28;10482739;28;20399;-78
2023/03/10 13:06:47;;;;;;;18.95;10.25;;;;;;;19.41;39.69;99701.41;10482022;28;20041;-77
2023/03/10 13:11:54;;;;;;;22.15;14.27;;;;;;;19.55;39.48;99731.56;10476692;28;20041;-76
2023/03/10 13:16:59;;;;;;;9.13;3.78;;;;;;;18.98;38.95;99653.47;10435485;28;20056;-76
2023/03/10 13:22:03;;;;;;;5.85;3.33;;;;;;;19.14;39.97;99711.94;10416139;28;20045;-75
2023/03/10 13:27:13;;;;;;;20.15;11.77;;;;;;;19.20;38.58;99726.31;10416654;28;20037;-75
2023/03/10 13:32:18;;;;;;;10.38;5.60;;;;;;;18.99;38.59;99700.88;10407952;28;20107;-76
2023/03/10 13:37:19;;;;;;;6.22;3.35;;;;;;;18.67;39.82;99666.31;10408845;28;20090;-76
2023/03/10 13:42:24;;;;;;;7.88;2.30;;;;;;;18.29;39.75;99648.81;10411021;28;20088;-76
2023/03/10 13:47:25;;;;;;;5.28;2.20;;;;;;;18.67;40.10;99737.06;10403247;28;20144;-76
2023/03/10 13:52:29;;;;;;;22.52;12.75;;;;;;;18.59;39.54;99745.47;10411585;28;20037;-75
2023/03/10 13:57:34;;;;;;;;;;;;;;;18.51;40.07;99742.34;10412867;28;20045;-74
2023/03/10 14:02:38;;;;;;;13.98;3.40;;;;;;;18.16;41.02;99743.97;10411794;28;20011;-74
2023/03/10 14:07:38;;;;;;;10.63;4.45;;;;;;;17.94;41.51;99742.88;10409858;28;20090;-74
2023/03/10 14:12:49;;;;;;;14.80;4.63;;;;;;;17.67;41.92;99731.69;10411011;28;20062;-74
2023/03/10 14:18:06;;;;;;;13.80;5.65;;;;;;;17.39;42.53;99718.88;10411034;28;20041;-74
2023/03/10 14:23:22;;;;;;;16.20;6.72;;;;;;;17.41;42.87;99760.56;10410443;28;20069;-76
2023/03/10 14:28:24;;;;;;;20.75;5.95;;;;;;;17.02;43.69;99735.88;10411190;28;20079;-76
2023/03/10 14:33:25;;;;;;;14.15;6.72;;;;;;;16.73;44.75;99742.75;10411304;28;20041;-76
2023/03/10 14:38:26;;;;;;;16.25;9.13;;;;;;;16.41;45.08;99734.81;10410075;28;20045;-76
2023/03/10 14:43:27;;;;;;;25.08;10.32;;;;;;;15.91;45.39;99683.97;10409658;28;20199;-76
2023/03/10 14:48:32;;;;;;;37.92;14.80;;;;;;;16.29;45.97;99773.28;10410550;28;20048;-76
2023/03/10 14:53:33;;;;;;;49.75;21.48;;;;;;;15.76;46.53;99747.72;10410026;28;20037;-76
2023/03/10 14:59:05;;;;;;;38.78;17.35;;;;;;;15.48;47.36;99740.84;10408985;28;20047;-76
2023/03/10 15:04:14;;;;;;;38.38;13.57;;;;;;;15.59;47.69;99800.13;10394535;28;20065;-75
2023/03/10 15:09:15;;;;;;;30.33;10.27;;;;;;;15.45;48.16;99808.19;10457296;28;20076;-74
2023/03/10 15:14:18;;;;;;;27.63;8.95;;;;;;;15.46;48.51;99823.22;10457023;28;20049;-73
2023/03/10 15:19:23;;;;;;;29.85;7.88;;;;;;;15.33;49.22;99827.81;10455437;28;20037;-77
2023/03/10 15:24:23;;;;;;;55.25;26.27;;;;;;;15.19;49.53;99829.72;10455683;28;20124;-73
2023/03/10 15:29:24;;;;;;;61.25;27.17;;;;;;;15.07;49.72;99841.06;10456551;28;20124;-77
2023/03/10 15:34:25;;;;;;;40.67;18.27;;;;;;;14.82;50.54;99834.75;10455957;28;20055;-75
2023/03/10 15:39:26;;;;;;;44.03;17.42;;;;;;;13.71;50.90;99693.78;10455445;28;20087;-76
2023/03/10 15:44:26;;;;;;;33.22;13.38;;;;;;;14.53;52.14;99866.22;10454726;28;20061;-76
2023/03/10 15:49:27;;;;;;;32.85;13.10;;;;;;;13.70;52.60;99766.88;10455906;28;20049;-76
2023/03/10 15:54:28;;;;;;;21.48;7.38;;;;;;;13.80;52.84;99803.84;10455326;28;20033;-76
2023/03/10 15:59:29;;;;;;;13.60;5.75;;;;;;;13.74;52.82;99812.66;10455137;28;20494;-77
2023/03/10 16:04:30;;;;;;;22.02;4.78;;;;;;;14.01;53.21;99883.78;10455090;28;20040;-76
2023/03/10 16:09:32;;;;;;;19.55;3.65;;;;;;;13.66;53.46;99848.34;10453394;28;20053;-77
2023/03/10 16:14:33;;;;;;;14.65;4.50;;;;;;;13.67;53.96;99861.50;10455148;28;20041;-74
2023/03/10 16:19:34;;;;;;;13.38;5.63;;;;;;;13.35;54.13;99847.00;10454063;28;20439;-76
2023/03/10 16:24:35;;;;;;;11.07;5.13;;;;;;;13.54;54.50;99912.16;10454415;28;20048;-76
2023/03/10 16:29:38;;;;;;;8.32;4.85;;;;;;;12.66;54.76;99788.34;10453917;28;20037;-77
2023/03/10 16:34:39;;;;;;;12.93;4.50;;;;;;;13.06;55.05;99871.22;10471735;28;20044;-75
2023/03/10 16:39:40;;;;;;;7.85;4.88;;;;;;;13.44;55.44;99931.19;10455295;28;20049;-79
2023/03/10 16:44:41;;;;;;;30.17;6.05;;;;;;;13.36;55.40;99898.50;10453294;28;20060;-76
2023/03/10 16:49:41;;;;;;;16.10;6.40;;;;;;;13.08;55.64;99858.53;10454251;28;20044;-76
2023/03/10 16:54:44;;;;;;;20.67;7.60;;;;;;;13.60;55.63;99955.91;10453430;28;20041;-75
2023/03/10 16:59:45;;;;;;;17.45;7.80;;;;;;;13.49;56.10;99970.66;10452535;28;20480;-74
2023/03/10 17:04:46;;;;;;;13.45;7.15;;;;;;;13.24;56.69;99933.69;10452797;28;20044;-74
2023/03/10 17:09:47;;;;;;;20.67;8.27;;;;;;;12.93;56.87;99869.31;10445798;28;20049;-73
2023/03/10 17:14:49;;;;;;;13.88;7.53;;;;;;;13.01;57.29;99885.97;10453450;28;20649;-76
2023/03/10 17:19:50;;;;;;;14.25;6.90;;;;;;;12.97;57.17;99878.56;10457067;28;20029;-77
2023/03/10 17:24:54;;;;;;;21.08;7.47;;;;;;;13.41;58.26;99958.28;10458565;28;20139;-77
2023/03/10 17:29:55;;;;;;;12.02;7.30;;;;;;;13.44;58.28;99991.75;10436124;28;20052;-77
2023/03/10 17:34:56;;;;;;;15.30;8.23;;;;;;;13.11;58.55;99952.28;10419437;28;20045;-77
2023/03/10 17:39:57;;;;;;;17.10;7.78;;;;;;;12.75;58.78;99904.44;10420395;28;20045;-77
2023/03/10 17:44:58;;;;;;;18.05;9.85;;;;;;;12.40;59.20;99879.53;10419374;28;20069;-77
2023/03/10 17:50:01;;;;;;;18.00;7.72;;;;;;;12.60;59.66;99951.66;10419291;28;20048;-78
2023/03/10 17:55:01;;;;;;;19.88;10.35;;;;;;;11.96;59.99;99878.69;10418036;28;20559;-75
2023/03/10 18:00:02;;;;;;;31.98;13.30;;;;;;;11.96;60.52;99877.88;10418877;28;20050;-76
2023/03/10 18:05:03;;;;;;;27.75;12.43;;;;;;;12.17;60.36;99893.84;10418126;28;20068;-76
2023/03/10 18:10:05;;;;;;;25.13;11.55;;;;;;;12.61;60.27;99964.78;10438016;28;20114;-76
2023/03/10 18:15:07;;;;;;;30.27;13.43;;;;;;;12.56;60.70;99970.69;10449925;28;20432;-80
2023/03/10 18:20:13;;;;;;;30.02;13.60;;;;;;;12.65;60.73;100010.53;10426386;28;20042;-79
2023/03/10 18:25:14;;;;;;;24.02;11.43;;;;;;;11.58;60.35;99848.75;10416188;28;20041;-78
2023/03/10 18:30:15;;;;;;;21.58;10.15;;;;;;;12.05;61.28;99948.59;10426119;28;20037;-79
2023/03/10 18:35:16;;;;;;;35.38;11.30;;;;;;;11.61;61.18;99880.31;10454961;28;20045;-80
2023/03/10 18:40:17;;;;;;;27.52;12.43;;;;;;;11.01;60.66;99767.03;10432284;28;20041;-81
2023/03/10 18:45:18;;;;;;;21.35;12.07;;;;;;;12.16;60.73;99948.13;10452204;28;20052;-82
2023/03/10 18:50:18;;;;;;;27.55;12.45;;;;;;;11.98;60.76;99915.78;10451211;28;20051;-77
2023/03/10 18:55:19;;;;;;;30.08;13.32;;;;;;;12.17;61.43;99960.41;10453040;28;20132;-77
2023/03/10 19:00:21;;;;;;;20.55;11.32;;;;;;;12.36;61.51;99995.47;10416925;28;20056;-76
2023/03/10 19:05:21;;;;;;;25.95;12.27;;;;;;;12.13;62.05;99963.66;10416147;28;20045;-77
2023/03/10 19:10:22;;;;;;;21.48;10.65;;;;;;;11.38;62.78;99857.31;10415714;28;20038;-78
2023/03/10 19:15:23;;;;;;;15.00;10.10;;;;;;;11.10;62.63;99843.03;10443132;28;20386;-79
2023/03/10 19:20:24;;;;;;;22.27;11.05;;;;;;;11.75;63.14;99977.91;10413876;28;20045;-80
2023/03/10 19:25:25;;;;;;;20.23;10.15;;;;;;;11.69;63.68;99970.66;10435106;28;20045;-78
2023/03/10 19:30:25;;;;;;;17.83;8.95;;;;;;;11.69;63.81;99993.78;10456156;28;20132;-78
2023/03/10 19:35:26;;;;;;;16.70;9.60;;;;;;;11.43;64.33;99963.16;10456110;28;20045;-79
2023/03/10 19:40:27;;;;;;;20.23;9.30;;;;;;;11.11;65.08;99996.19;10441765;28;20094;-79
2023/03/10 19:45:28;;;;;;;22.50;10.00;;;;;;;10.59;65.76;99938.50;10412976;28;20057;-80
2023/03/10 19:50:29;;;;;;;18.05;10.00;;;;;;;10.90;66.44;100002.19;10414055;28;20037;-80
2023/03/10 19:55:30;;;;;;;55.53;36.17;;;;;;;10.84;66.46;100011.69;10413571;28;20041;-79
2023/03/10 20:00:34;;;;;;;33.58;21.52;;;;;;;10.45;66.65;99964.00;10413481;28;20061;-79
2023/03/10 20:05:35;;;;;;;;;;;;;;;10.83;67.12;100015.38;10413763;28;20049;-80
2023/03/10 20:10:36;;;;;;;23.48;13.23;;;;;;;10.60;66.32;99983.47;10413940;28;19924;-80
2023/03/10 20:15:37;;;;;;;32.47;12.60;;;;;;;10.14;66.26;99914.41;10413758;28;20091;-80
2023/03/10 20:20:39;;;;;;;24.25;12.82;;;;;;;10.68;66.83;99988.75;10412034;28;20041;-79
2023/03/10 20:25:40;;;;;;;27.40;13.48;;;;;;;10.48;66.26;99947.72;10413285;28;20049;-79
2023/03/10 20:30:41;;;;;;;25.75;13.52;;;;;;;10.37;66.84;99966.69;10412388;28;20046;-79
2023/03/10 20:35:42;;;;;;;23.30;13.57;;;;;;;10.42;67.44;100005.00;10411802;28;20417;-79
2023/03/10 20:40:43;;;;;;;25.35;14.90;;;;;;;10.21;68.14;99994.97;10412847;28;20044;-79
2023/03/10 20:45:44;;;;;;;31.38;15.65;;;;;;;9.34;68.09;99864.25;10413321;28;20127;-79
2023/03/10 20:50:44;;;;;;;26.48;14.88;;;;;;;8.81;68.35;99828.63;10413376;28;20033;-79
2023/03/10 20:55:45;;;;;;;29.13;15.38;;;;;;;9.28;69.17;99920.59;10417758;28;20037;-80
2023/03/10 21:00:47;;;;;;;24.77;15.85;;;;;;;8.99;70.06;99916.66;10420255;28;20118;-79
2023/03/10 21:05:47;;;;;;;26.60;13.43;;;;;;;9.17;70.04;99953.56;10420733;28;20041;-79
2023/03/10 21:10:48;;;;;;;28.65;15.45;;;;;;;9.12;70.52;99983.22;10421103;28;20052;-79
2023/03/10 21:15:49;;;;;;;22.90;14.15;;;;;;;8.75;70.63;99956.41;10419703;28;20069;-80
2023/03/10 21:20:50;;;;;;;25.75;13.52;;;;;;;8.08;70.36;99887.69;10418768;28;20103;-79
2023/03/10 21:25:51;;;;;;;30.98;17.38;;;;;;;7.99;70.91;99898.25;10419806;28;20045;-79
2023/03/10 21:30:51;;;;;;;33.60;19.63;;;;;;;7.82;71.48;99879.84;10419201;28;20679;-79
2023/03/10 21:35:52;;;;;;;39.55;21.25;;;;;;;8.34;72.41;100001.34;10419655;28;20125;-80
2023/03/10 21:40:53;;;;;;;43.97;22.63;;;;;;;8.17;72.84;99981.97;10420376;28;20046;-80
2023/03/10 21:45:54;;;;;;;47.10;23.50;;;;;;;7.59;72.79;99912.16;10419479;28;20489;-80
2023/03/10 21:50:55;;;;;;;45.42;22.30;;;;;;;7.82;73.42;99954.72;10418887;28;20044;-80
2023/03/10 21:55:56;;;;;;;43.10;19.70;;;;;;;7.55;72.94;99919.59;10418866;28;20515;-80
2023/03/10 22:00:57;;;;;;;35.70;20.30;;;;;;;7.91;74.11;99989.97;10418581;28;20134;-80
2023/03/10 22:05:59;;;;;;;33.80;18.80;;;;;;;7.94;74.29;99984.34;10417289;28;20608;-80
2023/03/10 22:11:01;;;;;;;37.47;19.50;;;;;;;8.13;74.21;100010.53;10418919;28;20041;-80
2023/03/10 22:16:04;;;;;;;36.42;18.58;;;;;;;7.49;75.19;99908.81;10418605;28;20059;-79
2023/03/10 22:21:05;;;;;;;34.70;17.95;;;;;;;7.72;74.54;99940.81;10418403;28;20049;-80
2023/03/10 22:26:06;;;;;;;36.72;18.88;;;;;;;7.71;74.78;99965.56;10417637;28;20048;-80
2023/03/10 22:31:08;;;;;;;38.90;19.58;;;;;;;7.80;75.63;100028.09;10416838;28;20137;-80
2023/03/10 22:36:12;;;;;;;37.47;19.83;;;;;;;7.60;76.69;100024.88;10417290;28;20199;-80
2023/03/10 22:41:12;;;;;;;38.88;19.75;;;;;;;7.03;76.77;99951.34;10415692;28;20044;-80
2023/03/10 22:46:15;;;;;;;33.45;16.77;;;;;;;7.43;76.86;100041.59;10415713;28;20149;-80
2023/03/10 22:51:17;;;;;;;36.25;15.25;;;;;;;7.26;77.39;100056.50;10416708;28;20413;-80
2023/03/10 22:56:18;;;;;;;27.95;14.10;;;;;;;6.57;77.42;99944.53;10415949;28;20059;-80
2023/03/10 23:01:19;;;;;;;26.80;14.52;;;;;;;6.39;77.47;99921.63;10414972;28;20042;-79
2023/03/10 23:06:20;;;;;;;32.10;12.82;;;;;;;6.53;77.03;99954.56;10416396;28;20056;-80
2023/03/10 23:11:21;;;;;;;28.48;13.48;;;;;;;6.92;77.22;100043.19;10415934;28;20125;-79
2023/03/10 23:16:22;;;;;;;28.00;13.98;;;;;;;6.88;78.12;100020.69;10413976;28;20416;-79
2023/03/10 23:21:23;;;;;;;29.98;12.43;;;;;;;6.67;77.91;100018.34;10415500;28;20095;-80
2023/03/10 23:26:24;;;;;;;25.23;12.98;;;;;;;6.63;78.21;100007.28;10414036;28;20382;-79
2023/03/10 23:31:25;;;;;;;27.73;14.68;;;;;;;6.14;77.97;99936.41;10415376;28;20045;-79
2023/03/10 23:36:25;;;;;;;31.95;15.07;;;;;;;6.74;77.91;100011.50;10415223;28;20467;-80
2023/03/10 23:41:26;;;;;;;34.83;14.52;;;;;;;6.58;77.91;99985.78;10413979;28;20106;-79
2023/03/10 23:46:27;;;;;;;23.80;13.27;;;;;;;6.63;78.07;100018.66;10414357;28;20037;-80
2023/03/10 23:51:29;;;;;;;29.98;15.77;;;;;;;5.41;78.71;99830.13;10414838;28;20143;-80
2023/03/10 23:56:29;;;;;;;23.90;13.77;;;;;;;6.22;78.98;99971.72;10414734;28;20057;-80
